sensor_id;sensor_type;location;lat;lon;timestamp;P1;durP1;ratioP1;P2;durP2;ratioP2
51686;SDS011;37774;52.192;4.584;2024-02-21T00:02:21;13.65;;;2.70;;
51686;SDS011;37774;52.192;4.584;2024-02-21T00:05:07;9.27;;;2.55;;
51686;SDS011;37774;52.192;4.584;2024-02-21T00:07:52;22.58;;;4.25;;
51686;SDS011;37774;52.192;4.584;2024-02-21T00:10:37;21.45;;;2.45;;
51686;SDS011;37774;52.192;4.584;2024-02-21T00:13:22;27.45;;;3.05;;
51686;SDS011;37774;52.192;4.584;2024-02-21T00:16:07;14.77;;;2.35;;
51686;SDS011;37774;52.192;4.584;2024-02-21T00:18:53;23.08;;;2.83;;
51686;SDS011;37774;52.192;4.584;2024-02-21T00:21:38;22.50;;;2.85;;
51686;SDS011;37774;52.192;4.584;2024-02-21T00:24:23;32.70;;;3.10;;
51686;SDS011;37774;52.192;4.584;2024-02-21T00:27:08;30.65;;;4.03;;
51686;SDS011;37774;52.192;4.584;2024-02-21T00:29:53;13.43;;;2.17;;
51686;SDS011;37774;52.192;4.584;2024-02-21T00:32:38;23.95;;;2.75;;
51686;SDS011;37774;52.192;4.584;2024-02-21T00:35:25;15.60;;;2.80;;
51686;SDS011;37774;52.192;4.584;2024-02-21T00:38:10;28.33;;;2.45;;
51686;SDS011;37774;52.192;4.584;2024-02-21T00:40:55;23.45;;;2.42;;
51686;SDS011;37774;52.192;4.584;2024-02-21T00:43:40;20.50;;;3.22;;
51686;SDS011;37774;52.192;4.584;2024-02-21T00:46:26;30.52;;;3.05;;
51686;SDS011;37774;52.192;4.584;2024-02-21T00:49:10;17.73;;;3.05;;
51686;SDS011;37774;52.192;4.584;2024-02-21T00:51:57;26.13;;;3.55;;
51686;SDS011;37774;52.192;4.584;2024-02-21T00:54:42;26.70;;;3.85;;
51686;SDS011;37774;52.192;4.584;2024-02-21T00:57:27;19.42;;;3.00;;
51686;SDS011;37774;52.192;4.584;2024-02-21T01:00:12;16.70;;;2.47;;
51686;SDS011;37774;52.192;4.584;2024-02-21T01:02:58;29.33;;;3.13;;
51686;SDS011;37774;52.192;4.584;2024-02-21T01:05:43;21.20;;;3.22;;
51686;SDS011;37774;52.192;4.584;2024-02-21T01:08:29;15.77;;;2.55;;
51686;SDS011;37774;52.192;4.584;2024-02-21T01:11:15;17.10;;;2.70;;
51686;SDS011;37774;52.192;4.584;2024-02-21T01:14:00;22.10;;;3.08;;
51686;SDS011;37774;52.192;4.584;2024-02-21T01:16:45;28.17;;;3.47;;
51686;SDS011;37774;52.192;4.584;2024-02-21T01:19:30;34.63;;;3.17;;
51686;SDS011;37774;52.192;4.584;2024-02-21T01:22:15;15.35;;;3.03;;
51686;SDS011;37774;52.192;4.584;2024-02-21T01:25:03;27.70;;;2.67;;
51686;SDS011;37774;52.192;4.584;2024-02-21T01:27:48;24.83;;;2.97;;
51686;SDS011;37774;52.192;4.584;2024-02-21T01:30:34;19.65;;;3.97;;
51686;SDS011;37774;52.192;4.584;2024-02-21T01:33:19;12.90;;;2.50;;
51686;SDS011;37774;52.192;4.584;2024-02-21T01:36:04;7.88;;;2.35;;
51686;SDS011;37774;52.192;4.584;2024-02-21T01:38:50;28.73;;;3.55;;
51686;SDS011;37774;52.192;4.584;2024-02-21T01:41:36;38.05;;;3.95;;
51686;SDS011;37774;52.192;4.584;2024-02-21T01:44:21;17.47;;;3.00;;
51686;SDS011;37774;52.192;4.584;2024-02-21T01:47:06;23.73;;;2.15;;
51686;SDS011;37774;52.192;4.584;2024-02-21T01:49:51;17.75;;;3.08;;
51686;SDS011;37774;52.192;4.584;2024-02-21T01:52:36;25.13;;;3.05;;
51686;SDS011;37774;52.192;4.584;2024-02-21T01:55:22;24.20;;;2.13;;
51686;SDS011;37774;52.192;4.584;2024-02-21T01:58:09;16.13;;;3.53;;
51686;SDS011;37774;52.192;4.584;2024-02-21T02:00:54;14.13;;;2.75;;
51686;SDS011;37774;52.192;4.584;2024-02-21T02:03:41;15.30;;;2.08;;
51686;SDS011;37774;52.192;4.584;2024-02-21T02:06:26;15.18;;;2.78;;
51686;SDS011;37774;52.192;4.584;2024-02-21T02:09:11;16.48;;;3.10;;
51686;SDS011;37774;52.192;4.584;2024-02-21T02:11:56;17.30;;;3.03;;
51686;SDS011;37774;52.192;4.584;2024-02-21T02:14:43;21.77;;;3.33;;
51686;SDS011;37774;52.192;4.584;2024-02-21T02:17:28;25.30;;;2.67;;
51686;SDS011;37774;52.192;4.584;2024-02-21T02:20:13;26.42;;;3.55;;
51686;SDS011;37774;52.192;4.584;2024-02-21T02:22:59;19.35;;;2.78;;
51686;SDS011;37774;52.192;4.584;2024-02-21T02:25:45;24.80;;;3.05;;
51686;SDS011;37774;52.192;4.584;2024-02-21T02:28:32;26.52;;;3.50;;
51686;SDS011;37774;52.192;4.584;2024-02-21T02:31:18;20.27;;;3.03;;
51686;SDS011;37774;52.192;4.584;2024-02-21T02:34:03;19.40;;;3.45;;
51686;SDS011;37774;52.192;4.584;2024-02-21T02:36:48;15.32;;;3.15;;
51686;SDS011;37774;52.192;4.584;2024-02-21T02:39:33;25.58;;;3.05;;
51686;SDS011;37774;52.192;4.584;2024-02-21T02:42:20;13.15;;;3.08;;
51686;SDS011;37774;52.192;4.584;2024-02-21T02:45:05;24.17;;;2.72;;
51686;SDS011;37774;52.192;4.584;2024-02-21T02:47:50;43.63;;;4.30;;
51686;SDS011;37774;52.192;4.584;2024-02-21T02:50:35;30.05;;;3.72;;
51686;SDS011;37774;52.192;4.584;2024-02-21T02:53:20;27.45;;;2.75;;
51686;SDS011;37774;52.192;4.584;2024-02-21T02:56:05;22.88;;;3.83;;
51686;SDS011;37774;52.192;4.584;2024-02-21T02:58:52;25.00;;;3.30;;
51686;SDS011;37774;52.192;4.584;2024-02-21T03:01:37;23.67;;;3.03;;
51686;SDS011;37774;52.192;4.584;2024-02-21T03:04:23;26.13;;;3.22;;
51686;SDS011;37774;52.192;4.584;2024-02-21T03:07:08;28.20;;;2.67;;
51686;SDS011;37774;52.192;4.584;2024-02-21T03:09:54;23.25;;;2.53;;
51686;SDS011;37774;52.192;4.584;2024-02-21T03:12:39;39.83;;;4.30;;
51686;SDS011;37774;52.192;4.584;2024-02-21T03:15:26;22.92;;;4.20;;
51686;SDS011;37774;52.192;4.584;2024-02-21T03:18:11;26.63;;;3.73;;
51686;SDS011;37774;52.192;4.584;2024-02-21T03:20:56;27.27;;;3.70;;
51686;SDS011;37774;52.192;4.584;2024-02-21T03:23:41;10.30;;;2.20;;
51686;SDS011;37774;52.192;4.584;2024-02-21T03:26:26;15.80;;;3.38;;
51686;SDS011;37774;52.192;4.584;2024-02-21T03:29:11;30.27;;;3.65;;
51686;SDS011;37774;52.192;4.584;2024-02-21T03:31:57;25.42;;;4.15;;
51686;SDS011;37774;52.192;4.584;2024-02-21T03:34:43;23.83;;;4.00;;
51686;SDS011;37774;52.192;4.584;2024-02-21T03:37:28;17.10;;;2.88;;
51686;SDS011;37774;52.192;4.584;2024-02-21T03:40:13;10.68;;;2.38;;
51686;SDS011;37774;52.192;4.584;2024-02-21T03:42:58;29.70;;;3.17;;
51686;SDS011;37774;52.192;4.584;2024-02-21T03:45:43;22.50;;;2.85;;
51686;SDS011;37774;52.192;4.584;2024-02-21T03:48:29;15.38;;;3.50;;
51686;SDS011;37774;52.192;4.584;2024-02-21T03:51:14;11.33;;;2.83;;
51686;SDS011;37774;52.192;4.584;2024-02-21T03:53:59;26.00;;;3.28;;
51686;SDS011;37774;52.192;4.584;2024-02-21T03:56:44;20.42;;;3.42;;
51686;SDS011;37774;52.192;4.584;2024-02-21T03:59:31;29.40;;;4.05;;
51686;SDS011;37774;52.192;4.584;2024-02-21T04:02:16;27.40;;;4.00;;
51686;SDS011;37774;52.192;4.584;2024-02-21T04:05:02;24.27;;;4.13;;
51686;SDS011;37774;52.192;4.584;2024-02-21T04:07:48;29.15;;;4.57;;
51686;SDS011;37774;52.192;4.584;2024-02-21T04:10:33;16.92;;;3.60;;
51686;SDS011;37774;52.192;4.584;2024-02-21T04:13:19;20.00;;;4.03;;
51686;SDS011;37774;52.192;4.584;2024-02-21T04:16:06;19.08;;;4.68;;
51686;SDS011;37774;52.192;4.584;2024-02-21T04:18:51;20.20;;;4.07;;
51686;SDS011;37774;52.192;4.584;2024-02-21T04:21:37;22.50;;;3.65;;
51686;SDS011;37774;52.192;4.584;2024-02-21T04:24:22;21.90;;;4.17;;
51686;SDS011;37774;52.192;4.584;2024-02-21T04:27:07;17.45;;;4.40;;
51686;SDS011;37774;52.192;4.584;2024-02-21T04:29:52;33.13;;;5.13;;
51686;SDS011;37774;52.192;4.584;2024-02-21T04:32:38;13.43;;;4.20;;
51686;SDS011;37774;52.192;4.584;2024-02-21T04:35:23;13.80;;;4.70;;
51686;SDS011;37774;52.192;4.584;2024-02-21T04:38:09;14.73;;;4.40;;
51686;SDS011;37774;52.192;4.584;2024-02-21T04:40:54;23.65;;;5.05;;
51686;SDS011;37774;52.192;4.584;2024-02-21T04:43:41;10.68;;;5.03;;
51686;SDS011;37774;52.192;4.584;2024-02-21T04:46:26;25.33;;;4.93;;
51686;SDS011;37774;52.192;4.584;2024-02-21T04:49:12;13.40;;;4.35;;
51686;SDS011;37774;52.192;4.584;2024-02-21T04:51:57;18.35;;;5.40;;
51686;SDS011;37774;52.192;4.584;2024-02-21T04:54:43;16.50;;;4.78;;
51686;SDS011;37774;52.192;4.584;2024-02-21T04:57:28;21.80;;;4.82;;
51686;SDS011;37774;52.192;4.584;2024-02-21T05:00:14;22.73;;;5.75;;
51686;SDS011;37774;52.192;4.584;2024-02-21T05:02:59;18.90;;;5.47;;
51686;SDS011;37774;52.192;4.584;2024-02-21T05:05:44;18.48;;;5.18;;
51686;SDS011;37774;52.192;4.584;2024-02-21T05:08:29;22.00;;;5.18;;
51686;SDS011;37774;52.192;4.584;2024-02-21T05:11:16;11.85;;;4.20;;
51686;SDS011;37774;52.192;4.584;2024-02-21T05:14:01;27.33;;;5.80;;
51686;SDS011;37774;52.192;4.584;2024-02-21T05:16:46;30.10;;;4.50;;
51686;SDS011;37774;52.192;4.584;2024-02-21T05:19:31;13.43;;;4.07;;
51686;SDS011;37774;52.192;4.584;2024-02-21T05:22:16;12.80;;;3.95;;
51686;SDS011;37774;52.192;4.584;2024-02-21T05:25:01;24.02;;;4.97;;
51686;SDS011;37774;52.192;4.584;2024-02-21T05:27:48;16.20;;;4.72;;
51686;SDS011;37774;52.192;4.584;2024-02-21T05:30:36;19.15;;;5.10;;
51686;SDS011;37774;52.192;4.584;2024-02-21T05:33:21;14.82;;;4.75;;
51686;SDS011;37774;52.192;4.584;2024-02-21T05:36:06;26.00;;;5.38;;
51686;SDS011;37774;52.192;4.584;2024-02-21T05:38:51;12.90;;;5.43;;
51686;SDS011;37774;52.192;4.584;2024-02-21T05:41:36;15.45;;;5.72;;
51686;SDS011;37774;52.192;4.584;2024-02-21T05:44:23;18.02;;;6.05;;
51686;SDS011;37774;52.192;4.584;2024-02-21T05:47:08;17.15;;;6.28;;
51686;SDS011;37774;52.192;4.584;2024-02-21T05:49:54;21.35;;;6.55;;
51686;SDS011;37774;52.192;4.584;2024-02-21T05:52:39;15.02;;;6.13;;
51686;SDS011;37774;52.192;4.584;2024-02-21T05:55:24;15.73;;;7.05;;
51686;SDS011;37774;52.192;4.584;2024-02-21T05:58:11;14.40;;;6.82;;
51686;SDS011;37774;52.192;4.584;2024-02-21T06:00:58;13.10;;;6.82;;
51686;SDS011;37774;52.192;4.584;2024-02-21T06:03:45;12.52;;;5.30;;
51686;SDS011;37774;52.192;4.584;2024-02-21T06:06:30;13.05;;;7.07;;
51686;SDS011;37774;52.192;4.584;2024-02-21T06:09:15;18.27;;;6.80;;
51686;SDS011;37774;52.192;4.584;2024-02-21T06:12:00;20.73;;;6.68;;
51686;SDS011;37774;52.192;4.584;2024-02-21T06:14:45;18.00;;;6.90;;
51686;SDS011;37774;52.192;4.584;2024-02-21T06:17:32;14.00;;;6.15;;
51686;SDS011;37774;52.192;4.584;2024-02-21T06:20:17;19.98;;;8.23;;
51686;SDS011;37774;52.192;4.584;2024-02-21T06:23:02;27.13;;;6.22;;
51686;SDS011;37774;52.192;4.584;2024-02-21T06:25:47;17.15;;;7.47;;
51686;SDS011;37774;52.192;4.584;2024-02-21T06:28:32;15.55;;;6.88;;
51686;SDS011;37774;52.192;4.584;2024-02-21T06:31:18;19.85;;;7.68;;
51686;SDS011;37774;52.192;4.584;2024-02-21T06:34:04;18.67;;;7.38;;
51686;SDS011;37774;52.192;4.584;2024-02-21T06:36:49;18.83;;;8.73;;
51686;SDS011;37774;52.192;4.584;2024-02-21T06:39:34;20.40;;;7.82;;
51686;SDS011;37774;52.192;4.584;2024-02-21T06:42:21;23.63;;;9.43;;
51686;SDS011;37774;52.192;4.584;2024-02-21T06:45:06;23.80;;;9.15;;
51686;SDS011;37774;52.192;4.584;2024-02-21T06:47:51;19.63;;;9.43;;
51686;SDS011;37774;52.192;4.584;2024-02-21T06:50:38;20.15;;;8.43;;
51686;SDS011;37774;52.192;4.584;2024-02-21T06:53:23;25.58;;;9.63;;
51686;SDS011;37774;52.192;4.584;2024-02-21T06:56:08;23.70;;;8.20;;
51686;SDS011;37774;52.192;4.584;2024-02-21T06:58:53;21.33;;;9.32;;
51686;SDS011;37774;52.192;4.584;2024-02-21T07:01:38;22.20;;;9.90;;
51686;SDS011;37774;52.192;4.584;2024-02-21T07:04:23;30.95;;;10.90;;
51686;SDS011;37774;52.192;4.584;2024-02-21T07:07:10;27.45;;;9.80;;
51686;SDS011;37774;52.192;4.584;2024-02-21T07:09:55;32.83;;;10.77;;
51686;SDS011;37774;52.192;4.584;2024-02-21T07:12:40;33.00;;;12.00;;
51686;SDS011;37774;52.192;4.584;2024-02-21T07:15:27;26.50;;;11.32;;
51686;SDS011;37774;52.192;4.584;2024-02-21T07:18:14;23.45;;;9.98;;
51686;SDS011;37774;52.192;4.584;2024-02-21T07:20:59;23.17;;;10.88;;
51686;SDS011;37774;52.192;4.584;2024-02-21T07:23:46;31.63;;;10.80;;
51686;SDS011;37774;52.192;4.584;2024-02-21T07:26:31;21.15;;;9.93;;
51686;SDS011;37774;52.192;4.584;2024-02-21T07:29:16;25.40;;;10.27;;
51686;SDS011;37774;52.192;4.584;2024-02-21T07:32:01;30.67;;;10.70;;
51686;SDS011;37774;52.192;4.584;2024-02-21T07:34:46;22.92;;;10.50;;
51686;SDS011;37774;52.192;4.584;2024-02-21T07:37:31;26.13;;;9.95;;
51686;SDS011;37774;52.192;4.584;2024-02-21T07:40:17;29.33;;;11.02;;
51686;SDS011;37774;52.192;4.584;2024-02-21T07:43:02;37.28;;;10.88;;
51686;SDS011;37774;52.192;4.584;2024-02-21T07:45:48;28.30;;;10.85;;
51686;SDS011;37774;52.192;4.584;2024-02-21T07:48:33;27.92;;;10.43;;
51686;SDS011;37774;52.192;4.584;2024-02-21T07:51:18;27.15;;;10.70;;
51686;SDS011;37774;52.192;4.584;2024-02-21T07:54:03;23.83;;;9.48;;
51686;SDS011;37774;52.192;4.584;2024-02-21T07:56:50;37.53;;;11.18;;
51686;SDS011;37774;52.192;4.584;2024-02-21T07:59:35;21.52;;;9.85;;
51686;SDS011;37774;52.192;4.584;2024-02-21T08:02:20;26.48;;;9.57;;
51686;SDS011;37774;52.192;4.584;2024-02-21T08:05:05;28.35;;;10.20;;
51686;SDS011;37774;52.192;4.584;2024-02-21T08:07:51;36.10;;;10.82;;
51686;SDS011;37774;52.192;4.584;2024-02-21T08:10:36;25.00;;;10.05;;
51686;SDS011;37774;52.192;4.584;2024-02-21T08:13:23;25.60;;;9.48;;
51686;SDS011;37774;52.192;4.584;2024-02-21T08:16:08;27.90;;;11.05;;
51686;SDS011;37774;52.192;4.584;2024-02-21T08:18:53;19.52;;;9.15;;
51686;SDS011;37774;52.192;4.584;2024-02-21T08:21:38;33.60;;;9.98;;
51686;SDS011;37774;52.192;4.584;2024-02-21T08:24:23;30.17;;;11.65;;
51686;SDS011;37774;52.192;4.584;2024-02-21T08:27:08;29.38;;;9.05;;
51686;SDS011;37774;52.192;4.584;2024-02-21T08:29:54;25.55;;;10.70;;
51686;SDS011;37774;52.192;4.584;2024-02-21T08:32:39;36.45;;;13.32;;
51686;SDS011;37774;52.192;4.584;2024-02-21T08:35:24;36.65;;;12.98;;
51686;SDS011;37774;52.192;4.584;2024-02-21T08:38:09;28.67;;;11.15;;
51686;SDS011;37774;52.192;4.584;2024-02-21T08:40:54;33.47;;;11.77;;
51686;SDS011;37774;52.192;4.584;2024-02-21T08:43:39;36.53;;;12.65;;
51686;SDS011;37774;52.192;4.584;2024-02-21T08:46:25;34.47;;;13.90;;
51686;SDS011;37774;52.192;4.584;2024-02-21T08:51:57;25.88;;;12.38;;
51686;SDS011;37774;52.192;4.584;2024-02-21T08:54:42;39.25;;;13.25;;
51686;SDS011;37774;52.192;4.584;2024-02-21T08:57:27;28.65;;;11.77;;
51686;SDS011;37774;52.192;4.584;2024-02-21T09:00:13;28.67;;;11.07;;
51686;SDS011;37774;52.192;4.584;2024-02-21T09:03:00;23.23;;;11.20;;
51686;SDS011;37774;52.192;4.584;2024-02-21T09:05:45;34.13;;;11.70;;
51686;SDS011;37774;52.192;4.584;2024-02-21T09:08:30;25.02;;;11.77;;
51686;SDS011;37774;52.192;4.584;2024-02-21T09:11:15;28.70;;;11.45;;
51686;SDS011;37774;52.192;4.584;2024-02-21T09:14:00;26.52;;;12.45;;
51686;SDS011;37774;52.192;4.584;2024-02-21T09:16:47;33.10;;;12.82;;
51686;SDS011;37774;52.192;4.584;2024-02-21T09:19:35;34.00;;;12.00;;
51686;SDS011;37774;52.192;4.584;2024-02-21T09:22:20;33.55;;;13.77;;
51686;SDS011;37774;52.192;4.584;2024-02-21T09:25:05;30.85;;;13.65;;
51686;SDS011;37774;52.192;4.584;2024-02-21T09:27:50;33.13;;;13.43;;
51686;SDS011;37774;52.192;4.584;2024-02-21T09:30:36;38.38;;;16.52;;
51686;SDS011;37774;52.192;4.584;2024-02-21T09:33:22;36.60;;;14.10;;
51686;SDS011;37774;52.192;4.584;2024-02-21T09:36:08;28.63;;;13.68;;
51686;SDS011;37774;52.192;4.584;2024-02-21T09:38:53;35.58;;;14.20;;
51686;SDS011;37774;52.192;4.584;2024-02-21T09:41:38;29.75;;;14.23;;
51686;SDS011;37774;52.192;4.584;2024-02-21T09:44:30;28.35;;;13.10;;
51686;SDS011;37774;52.192;4.584;2024-02-21T09:47:17;23.25;;;12.75;;
51686;SDS011;37774;52.192;4.584;2024-02-21T09:50:04;23.25;;;11.07;;
51686;SDS011;37774;52.192;4.584;2024-02-21T09:52:50;25.75;;;11.40;;
51686;SDS011;37774;52.192;4.584;2024-02-21T09:55:36;25.10;;;10.30;;
51686;SDS011;37774;52.192;4.584;2024-02-21T09:58:23;31.02;;;10.52;;
51686;SDS011;37774;52.192;4.584;2024-02-21T10:01:10;25.63;;;9.48;;
51686;SDS011;37774;52.192;4.584;2024-02-21T10:03:55;29.63;;;12.05;;
51686;SDS011;37774;52.192;4.584;2024-02-21T10:06:41;25.38;;;9.95;;
51686;SDS011;37774;52.192;4.584;2024-02-21T10:09:27;22.92;;;9.32;;
51686;SDS011;37774;52.192;4.584;2024-02-21T10:12:13;27.15;;;11.00;;
51686;SDS011;37774;52.192;4.584;2024-02-21T10:15:02;25.15;;;9.35;;
51686;SDS011;37774;52.192;4.584;2024-02-21T10:17:47;19.95;;;7.95;;
51686;SDS011;37774;52.192;4.584;2024-02-21T10:20:32;25.02;;;9.00;;
51686;SDS011;37774;52.192;4.584;2024-02-21T10:23:18;22.50;;;8.88;;
51686;SDS011;37774;52.192;4.584;2024-02-21T10:26:07;17.38;;;7.55;;
51686;SDS011;37774;52.192;4.584;2024-02-21T10:28:52;13.32;;;7.80;;
51686;SDS011;37774;52.192;4.584;2024-02-21T10:31:38;22.75;;;7.90;;
51686;SDS011;37774;52.192;4.584;2024-02-21T10:34:23;18.65;;;8.13;;
51686;SDS011;37774;52.192;4.584;2024-02-21T10:37:09;19.73;;;8.60;;
51686;SDS011;37774;52.192;4.584;2024-02-21T10:39:54;19.08;;;8.88;;
51686;SDS011;37774;52.192;4.584;2024-02-21T10:42:41;23.45;;;8.98;;
51686;SDS011;37774;52.192;4.584;2024-02-21T10:45:29;18.30;;;9.00;;
51686;SDS011;37774;52.192;4.584;2024-02-21T10:48:14;26.05;;;9.90;;
51686;SDS011;37774;52.192;4.584;2024-02-21T10:51:01;20.38;;;8.70;;
51686;SDS011;37774;52.192;4.584;2024-02-21T10:53:50;17.17;;;9.48;;
51686;SDS011;37774;52.192;4.584;2024-02-21T10:56:35;19.52;;;8.98;;
51686;SDS011;37774;52.192;4.584;2024-02-21T10:59:23;21.25;;;8.75;;
51686;SDS011;37774;52.192;4.584;2024-02-21T11:02:10;17.15;;;8.65;;
51686;SDS011;37774;52.192;4.584;2024-02-21T11:04:55;16.13;;;7.43;;
51686;SDS011;37774;52.192;4.584;2024-02-21T11:07:41;19.33;;;8.13;;
51686;SDS011;37774;52.192;4.584;2024-02-21T11:10:27;14.90;;;6.35;;
51686;SDS011;37774;52.192;4.584;2024-02-21T11:13:12;15.40;;;7.90;;
51686;SDS011;37774;52.192;4.584;2024-02-21T11:16:06;17.63;;;8.45;;
51686;SDS011;37774;52.192;4.584;2024-02-21T11:18:52;16.00;;;7.57;;
51686;SDS011;37774;52.192;4.584;2024-02-21T11:21:48;19.00;;;7.63;;
51686;SDS011;37774;52.192;4.584;2024-02-21T11:24:34;15.57;;;7.70;;
51686;SDS011;37774;52.192;4.584;2024-02-21T11:27:21;20.02;;;8.98;;
51686;SDS011;37774;52.192;4.584;2024-02-21T11:30:11;17.20;;;8.60;;
51686;SDS011;37774;52.192;4.584;2024-02-21T11:33:02;16.38;;;8.77;;
51686;SDS011;37774;52.192;4.584;2024-02-21T11:35:48;17.27;;;8.23;;
51686;SDS011;37774;52.192;4.584;2024-02-21T11:38:32;15.82;;;8.43;;
51686;SDS011;37774;52.192;4.584;2024-02-21T11:41:17;20.58;;;8.13;;
51686;SDS011;37774;52.192;4.584;2024-02-21T11:44:04;18.50;;;7.95;;
51686;SDS011;37774;52.192;4.584;2024-02-21T11:46:49;15.85;;;9.45;;
51686;SDS011;37774;52.192;4.584;2024-02-21T11:49:37;18.20;;;8.65;;
51686;SDS011;37774;52.192;4.584;2024-02-21T11:52:24;16.77;;;8.35;;
51686;SDS011;37774;52.192;4.584;2024-02-21T11:55:09;19.75;;;8.15;;
51686;SDS011;37774;52.192;4.584;2024-02-21T11:57:54;15.07;;;8.95;;
51686;SDS011;37774;52.192;4.584;2024-02-21T12:00:39;19.40;;;8.88;;
51686;SDS011;37774;52.192;4.584;2024-02-21T12:03:24;16.92;;;7.63;;
51686;SDS011;37774;52.192;4.584;2024-02-21T12:06:11;17.42;;;7.45;;
51686;SDS011;37774;52.192;4.584;2024-02-21T12:11:42;15.30;;;6.72;;
51686;SDS011;37774;52.192;4.584;2024-02-21T12:14:28;18.67;;;6.93;;
51686;SDS011;37774;52.192;4.584;2024-02-21T12:17:13;15.32;;;8.20;;
51686;SDS011;37774;52.192;4.584;2024-02-21T12:19:58;13.93;;;7.32;;
51686;SDS011;37774;52.192;4.584;2024-02-21T12:22:45;16.42;;;7.15;;
51686;SDS011;37774;52.192;4.584;2024-02-21T12:25:30;12.43;;;7.65;;
51686;SDS011;37774;52.192;4.584;2024-02-21T12:28:15;20.77;;;7.22;;
51686;SDS011;37774;52.192;4.584;2024-02-21T12:31:01;14.98;;;6.97;;
51686;SDS011;37774;52.192;4.584;2024-02-21T12:33:47;11.90;;;7.15;;
51686;SDS011;37774;52.192;4.584;2024-02-21T12:36:33;15.93;;;7.53;;
51686;SDS011;37774;52.192;4.584;2024-02-21T12:39:19;14.75;;;6.50;;
51686;SDS011;37774;52.192;4.584;2024-02-21T12:42:04;18.20;;;6.93;;
51686;SDS011;37774;52.192;4.584;2024-02-21T12:44:50;12.85;;;7.15;;
51686;SDS011;37774;52.192;4.584;2024-02-21T12:47:35;14.93;;;7.15;;
51686;SDS011;37774;52.192;4.584;2024-02-21T12:50:20;18.60;;;7.18;;
51686;SDS011;37774;52.192;4.584;2024-02-21T12:53:06;13.00;;;6.82;;
51686;SDS011;37774;52.192;4.584;2024-02-21T12:55:52;13.77;;;7.15;;
51686;SDS011;37774;52.192;4.584;2024-02-21T12:58:38;16.50;;;7.68;;
51686;SDS011;37774;52.192;4.584;2024-02-21T13:01:23;15.45;;;7.13;;
51686;SDS011;37774;52.192;4.584;2024-02-21T13:04:08;19.40;;;8.57;;
51686;SDS011;37774;52.192;4.584;2024-02-21T13:06:53;20.90;;;9.20;;
51686;SDS011;37774;52.192;4.584;2024-02-21T13:09:38;14.63;;;7.93;;
51686;SDS011;37774;52.192;4.584;2024-02-21T13:12:25;16.23;;;8.27;;
51686;SDS011;37774;52.192;4.584;2024-02-21T13:17:56;14.48;;;7.32;;
51686;SDS011;37774;52.192;4.584;2024-02-21T13:20:42;28.95;;;8.70;;
51686;SDS011;37774;52.192;4.584;2024-02-21T13:23:27;10.63;;;7.30;;
51686;SDS011;37774;52.192;4.584;2024-02-21T13:26:12;19.50;;;8.20;;
51686;SDS011;37774;52.192;4.584;2024-02-21T13:28:59;17.95;;;9.10;;
51686;SDS011;37774;52.192;4.584;2024-02-21T13:31:44;22.67;;;9.15;;
51686;SDS011;37774;52.192;4.584;2024-02-21T13:34:30;18.42;;;8.93;;
51686;SDS011;37774;52.192;4.584;2024-02-21T13:37:15;20.42;;;8.48;;
51686;SDS011;37774;52.192;4.584;2024-02-21T13:40:00;14.88;;;8.43;;
51686;SDS011;37774;52.192;4.584;2024-02-21T13:42:48;22.50;;;9.80;;
51686;SDS011;37774;52.192;4.584;2024-02-21T13:45:36;19.13;;;7.63;;
51686;SDS011;37774;52.192;4.584;2024-02-21T13:48:21;17.13;;;7.75;;
51686;SDS011;37774;52.192;4.584;2024-02-21T13:51:06;23.30;;;8.57;;
51686;SDS011;37774;52.192;4.584;2024-02-21T13:53:51;26.58;;;10.23;;
51686;SDS011;37774;52.192;4.584;2024-02-21T13:56:36;21.25;;;10.43;;
51686;SDS011;37774;52.192;4.584;2024-02-21T13:59:21;21.95;;;8.98;;
51686;SDS011;37774;52.192;4.584;2024-02-21T14:02:08;22.48;;;9.48;;
51686;SDS011;37774;52.192;4.584;2024-02-21T14:04:53;17.17;;;8.60;;
51686;SDS011;37774;52.192;4.584;2024-02-21T14:07:38;27.40;;;8.73;;
51686;SDS011;37774;52.192;4.584;2024-02-21T14:10:23;19.95;;;8.95;;
51686;SDS011;37774;52.192;4.584;2024-02-21T14:13:08;13.77;;;7.00;;
51686;SDS011;37774;52.192;4.584;2024-02-21T14:15:54;15.00;;;6.53;;
51686;SDS011;37774;52.192;4.584;2024-02-21T14:18:41;15.65;;;7.03;;
51686;SDS011;37774;52.192;4.584;2024-02-21T14:21:26;21.55;;;7.03;;
51686;SDS011;37774;52.192;4.584;2024-02-21T14:24:12;21.95;;;7.93;;
51686;SDS011;37774;52.192;4.584;2024-02-21T14:26:57;13.35;;;6.97;;
51686;SDS011;37774;52.192;4.584;2024-02-21T14:29:43;15.90;;;6.88;;
51686;SDS011;37774;52.192;4.584;2024-02-21T14:32:28;12.38;;;5.70;;
51686;SDS011;37774;52.192;4.584;2024-02-21T14:35:14;12.45;;;6.05;;
51686;SDS011;37774;52.192;4.584;2024-02-21T14:38:00;14.07;;;5.97;;
51686;SDS011;37774;52.192;4.584;2024-02-21T14:40:45;14.68;;;5.88;;
51686;SDS011;37774;52.192;4.584;2024-02-21T14:43:30;13.85;;;5.65;;
51686;SDS011;37774;52.192;4.584;2024-02-21T14:46:16;14.70;;;6.97;;
51686;SDS011;37774;52.192;4.584;2024-02-21T14:49:01;11.75;;;5.70;;
51686;SDS011;37774;52.192;4.584;2024-02-21T14:51:48;13.75;;;5.47;;
51686;SDS011;37774;52.192;4.584;2024-02-21T14:54:33;8.27;;;5.00;;
51686;SDS011;37774;52.192;4.584;2024-02-21T14:57:19;13.98;;;5.63;;
51686;SDS011;37774;52.192;4.584;2024-02-21T15:00:06;12.32;;;4.72;;
51686;SDS011;37774;52.192;4.584;2024-02-21T15:02:51;12.85;;;5.65;;
51686;SDS011;37774;52.192;4.584;2024-02-21T15:05:36;12.60;;;5.43;;
51686;SDS011;37774;52.192;4.584;2024-02-21T15:08:25;15.90;;;5.93;;
51686;SDS011;37774;52.192;4.584;2024-02-21T15:11:11;7.97;;;5.05;;
51686;SDS011;37774;52.192;4.584;2024-02-21T15:13:56;15.35;;;6.05;;
51686;SDS011;37774;52.192;4.584;2024-02-21T15:16:41;11.65;;;5.22;;
51686;SDS011;37774;52.192;4.584;2024-02-21T15:19:26;16.02;;;5.70;;
51686;SDS011;37774;52.192;4.584;2024-02-21T15:22:11;18.98;;;5.75;;
51686;SDS011;37774;52.192;4.584;2024-02-21T15:24:58;11.23;;;5.88;;
51686;SDS011;37774;52.192;4.584;2024-02-21T15:27:43;12.38;;;5.88;;
51686;SDS011;37774;52.192;4.584;2024-02-21T15:30:28;13.80;;;5.43;;
51686;SDS011;37774;52.192;4.584;2024-02-21T15:33:15;14.90;;;5.43;;
51686;SDS011;37774;52.192;4.584;2024-02-21T15:36:00;11.23;;;5.30;;
51686;SDS011;37774;52.192;4.584;2024-02-21T15:38:45;18.10;;;7.80;;
51686;SDS011;37774;52.192;4.584;2024-02-21T15:41:32;9.38;;;5.68;;
51686;SDS011;37774;52.192;4.584;2024-02-21T15:44:17;11.77;;;6.65;;
51686;SDS011;37774;52.192;4.584;2024-02-21T15:47:04;9.43;;;5.88;;
51686;SDS011;37774;52.192;4.584;2024-02-21T15:49:50;17.40;;;6.35;;
51686;SDS011;37774;52.192;4.584;2024-02-21T15:52:35;14.80;;;6.47;;
51686;SDS011;37774;52.192;4.584;2024-02-21T15:55:21;12.05;;;5.95;;
51686;SDS011;37774;52.192;4.584;2024-02-21T15:58:07;16.02;;;5.45;;
51686;SDS011;37774;52.192;4.584;2024-02-21T16:00:52;19.13;;;6.35;;
51686;SDS011;37774;52.192;4.584;2024-02-21T16:03:38;11.88;;;5.82;;
51686;SDS011;37774;52.192;4.584;2024-02-21T16:06:23;12.77;;;7.18;;
51686;SDS011;37774;52.192;4.584;2024-02-21T16:09:08;16.80;;;6.53;;
51686;SDS011;37774;52.192;4.584;2024-02-21T16:11:53;8.90;;;5.80;;
51686;SDS011;37774;52.192;4.584;2024-02-21T16:14:40;12.88;;;5.93;;
51686;SDS011;37774;52.192;4.584;2024-02-21T16:17:26;10.25;;;6.30;;
51686;SDS011;37774;52.192;4.584;2024-02-21T16:20:11;8.57;;;5.82;;
51686;SDS011;37774;52.192;4.584;2024-02-21T16:22:58;13.07;;;6.72;;
51686;SDS011;37774;52.192;4.584;2024-02-21T16:25:46;11.95;;;6.88;;
51686;SDS011;37774;52.192;4.584;2024-02-21T16:28:32;10.50;;;5.82;;
51686;SDS011;37774;52.192;4.584;2024-02-21T16:31:18;15.27;;;6.18;;